Time,TemperatureF,DewpointF,PressureIn,WindDirection,WindDirectionDegrees,WindSpeedMPH,WindSpeedGustMPH,Humidity,HourlyPrecipIn,Conditions,Clouds,dailyrainin,SolarRadiationWatts/m^2,SoftwareType,DateUTC
2013-05-10 00:22:00,41.0,41.0,-100.00,NNW,348,10.0,15.0,100,0.00,,,0.00,0.000000,,2013-05-10 07:22:00,
2013-05-10 00:31:00,41.0,41.0,-100.00,NNW,348,10.0,15.0,100,0.00,,,0.00,0.000000,,2013-05-10 07:31:00,
2013-05-10 00:42:00,41.0,41.0,-100.00,NNW,348,10.0,15.0,100,0.00,,,0.00,0.000000,,2013-05-10 07:42:00,
2013-05-10 00:51:00,42.0,42.0,-100.00,NNW,347,9.0,15.0,100,0.00,,,0.00,0.000000,,2013-05-10 07:51:00,
2013-05-10 01:21:00,42.0,42.0,-100.00,NNW,347,9.0,15.0,100,0.00,,,0.00,0.000000,,2013-05-10 08:21:00,
2013-05-10 01:32:00,42.0,42.0,-100.00,NNW,347,9.0,15.0,100,0.00,,,0.00,0.000000,,2013-05-10 08:32:00,
2013-05-10 01:42:00,42.0,42.0,-100.00,NNW,347,9.0,15.0,100,0.00,,,0.00,0.000000,,2013-05-10 08:42:00,
2013-05-10 01:51:00,41.0,41.0,-100.00,North,351,9.0,13.0,100,0.00,,,0.00,0.000000,,2013-05-10 08:51:00,
2013-05-10 02:21:00,41.0,41.0,-100.00,North,351,9.0,13.0,100,0.00,,,0.00,0.000000,,2013-05-10 09:21:00,
2013-05-10 02:32:00,41.0,41.0,-100.00,North,351,9.0,13.0,100,0.00,,,0.00,0.000000,,2013-05-10 09:32:00,
2013-05-10 02:42:00,41.0,41.0,-100.00,North,351,9.0,13.0,100,0.00,,,0.00,0.000000,,2013-05-10 09:42:00,
2013-05-10 02:51:00,41.0,41.0,-100.00,North,350,9.0,14.0,100,0.00,,,0.00,0.000000,,2013-05-10 09:51:00,
2013-05-10 03:23:00,41.0,41.0,-100.00,North,350,9.0,14.0,100,0.00,,,0.00,0.000000,,2013-05-10 10:23:00,
2013-05-10 03:32:00,41.0,41.0,-100.00,North,350,9.0,14.0,100,0.00,,,0.00,0.000000,,2013-05-10 10:32:00,
2013-05-10 03:41:00,41.0,41.0,-100.00,North,350,9.0,14.0,100,0.00,,,0.00,0.000000,,2013-05-10 10:41:00,
2013-05-10 03:51:00,41.0,41.0,-100.00,NNW,346,8.0,14.0,100,0.00,,,0.00,0.000000,,2013-05-10 10:51:00,
2013-05-10 04:12:00,41.0,41.0,-100.00,NNW,346,8.0,14.0,100,0.00,,,0.00,0.000000,,2013-05-10 11:12:00,
2013-05-10 04:21:00,41.0,41.0,-100.00,NNW,346,8.0,14.0,100,0.00,,,0.00,0.000000,,2013-05-10 11:21:00,
2013-05-10 04:32:00,41.0,41.0,-100.00,NNW,346,8.0,14.0,100,0.00,,,0.00,0.000000,,2013-05-10 11:32:00,
2013-05-10 04:42:00,41.0,41.0,-100.00,NNW,346,8.0,14.0,100,0.00,,,0.00,0.000000,,2013-05-10 11:42:00,
2013-05-10 06:51:00,43.0,43.0,-100.00,North,357,6.0,11.0,100,-99.99,,,0.00,70.000000,,2013-05-10 13:51:00,
2013-05-10 07:11:00,43.0,43.0,-100.00,North,357,6.0,11.0,100,-99.99,,,0.00,70.000000,,2013-05-10 14:11:00,
2013-05-10 07:21:00,43.0,43.0,-100.00,North,357,6.0,11.0,100,-99.99,,,0.00,70.000000,,2013-05-10 14:21:00,
2013-05-10 07:32:00,43.0,43.0,-100.00,North,357,6.0,11.0,100,-99.99,,,0.00,70.000000,,2013-05-10 14:32:00,
2013-05-10 07:41:00,43.0,43.0,-100.00,North,357,6.0,11.0,100,-99.99,,,0.00,70.000000,,2013-05-10 14:41:00,
2013-05-10 07:51:00,50.0,43.0,-100.00,NNE,13,3.0,11.0,76,0.00,,,0.00,302.000000,,2013-05-10 14:51:00,
2013-05-10 08:20:00,-999.0,-99.9,-100.00,NNE,13,3.0,11.0,76,0.00,,,0.00,302.000000,,2013-05-10 15:20:00,
2013-05-10 08:32:00,50.0,43.0,-100.00,NNE,13,3.0,11.0,76,0.00,,,0.00,302.000000,,2013-05-10 15:32:00,
2013-05-10 08:42:00,50.0,43.0,-100.00,NNE,13,3.0,11.0,76,0.00,,,0.00,302.000000,,2013-05-10 15:42:00,
2013-05-10 08:51:00,55.0,37.0,-100.00,NE,36,2.0,11.0,51,0.00,,,0.00,529.000000,,2013-05-10 15:51:00,
2013-05-10 09:23:00,55.0,37.0,-100.00,NE,36,2.0,11.0,51,0.00,,,0.00,529.000000,,2013-05-10 16:23:00,
2013-05-10 09:32:00,55.0,37.0,-100.00,NE,36,2.0,11.0,51,0.00,,,0.00,529.000000,,2013-05-10 16:32:00,
2013-05-10 09:42:00,55.0,37.0,-100.00,NE,36,2.0,11.0,51,0.00,,,0.00,529.000000,,2013-05-10 16:42:00,
2013-05-10 09:51:00,59.0,40.0,-100.00,NE,35,1.0,11.0,49,0.00,,,0.00,908.000000,,2013-05-10 16:51:00,
2013-05-10 10:21:00,59.0,40.0,-100.00,NE,35,1.0,11.0,49,0.00,,,0.00,908.000000,,2013-05-10 17:21:00,
2013-05-10 10:42:00,59.0,40.0,-100.00,NE,35,1.0,11.0,49,0.00,,,0.00,908.000000,,2013-05-10 17:42:00,
2013-05-10 10:51:00,62.0,42.0,-100.00,NE,47,2.0,8.0,48,-99.99,,,0.00,1146.000000,,2013-05-10 17:51:00,
2013-05-10 11:11:00,62.0,42.0,-100.00,NE,47,2.0,8.0,48,-99.99,,,0.00,1146.000000,,2013-05-10 18:11:00,
2013-05-10 11:43:00,62.0,42.0,-100.00,NE,47,2.0,8.0,48,-99.99,,,0.00,1146.000000,,2013-05-10 18:43:00,
2013-05-10 11:51:00,66.0,45.0,-100.00,NE,40,0.0,11.0,47,0.00,,,0.00,1325.000000,,2013-05-10 18:51:00,
2013-05-10 12:11:00,66.0,45.0,-100.00,NE,40,0.0,11.0,47,0.00,,,0.00,1325.000000,,2013-05-10 19:11:00,
2013-05-10 12:42:00,66.0,45.0,-100.00,NE,40,0.0,11.0,47,0.00,,,0.00,1325.000000,,2013-05-10 19:42:00,
2013-05-10 12:51:00,68.0,43.0,-100.00,WNW,302,1.0,8.0,41,-99.99,,,0.00,1422.000000,,2013-05-10 19:51:00,
2013-05-10 13:41:00,68.0,43.0,-100.00,WNW,302,1.0,8.0,41,-99.99,,,0.00,1422.000000,,2013-05-10 20:41:00,
2013-05-10 13:51:00,69.0,48.0,-100.00,South,173,1.0,7.0,48,0.00,,,0.00,1430.000000,,2013-05-10 20:51:00,
2013-05-10 14:42:00,69.0,48.0,-100.00,South,173,1.0,7.0,48,0.00,,,0.00,1430.000000,,2013-05-10 21:42:00,
2013-05-10 14:51:00,64.0,51.0,-100.00,West,273,1.0,6.0,62,-99.99,,,0.00,813.000000,,2013-05-10 21:51:00,
2013-05-10 15:12:00,64.0,51.0,-100.00,West,273,1.0,6.0,62,-99.99,,,0.00,813.000000,,2013-05-10 22:12:00,
2013-05-10 15:42:00,64.0,51.0,-100.00,West,273,1.0,6.0,62,-99.99,,,0.00,813.000000,,2013-05-10 22:42:00,
2013-05-10 15:51:00,62.0,45.0,-100.00,NW,304,4.0,9.0,54,0.00,,,0.00,1175.000000,,2013-05-10 22:51:00,
2013-05-10 16:12:00,62.0,45.0,-100.00,NW,304,4.0,9.0,54,0.00,,,0.00,1175.000000,,2013-05-10 23:12:00,
2013-05-10 16:22:00,62.0,45.0,-100.00,NW,304,4.0,9.0,54,0.00,,,0.00,1175.000000,,2013-05-10 23:22:00,
2013-05-10 16:32:00,62.0,45.0,-100.00,NW,304,4.0,9.0,54,0.00,,,0.00,1175.000000,,2013-05-10 23:32:00,
2013-05-10 16:41:00,62.0,45.0,-100.00,NW,304,4.0,9.0,54,0.00,,,0.00,1175.000000,,2013-05-10 23:41:00,
2013-05-10 16:51:00,61.0,42.0,-100.00,North,354,4.0,12.0,49,0.00,,,0.00,961.000000,,2013-05-10 23:51:00,
2013-05-10 17:21:00,61.0,42.0,-100.00,North,354,4.0,12.0,49,0.00,,,0.00,961.000000,,2013-05-11 00:21:00,
2013-05-10 17:32:00,61.0,42.0,-100.00,North,354,4.0,12.0,49,0.00,,,0.00,961.000000,,2013-05-11 00:32:00,
2013-05-10 17:42:00,61.0,42.0,-100.00,North,354,4.0,12.0,49,0.00,,,0.00,961.000000,,2013-05-11 00:42:00,
2013-05-10 17:51:00,56.0,41.0,-100.00,WNW,289,5.0,10.0,56,0.00,,,0.00,668.000000,,2013-05-11 00:51:00,
2013-05-10 18:21:00,56.0,41.0,-100.00,WNW,289,5.0,10.0,56,0.00,,,0.00,668.000000,,2013-05-11 01:21:00,
2013-05-10 18:31:00,56.0,41.0,-100.00,WNW,289,5.0,10.0,56,0.00,,,0.00,668.000000,,2013-05-11 01:31:00,
2013-05-10 18:42:00,56.0,41.0,-100.00,WNW,289,5.0,10.0,56,0.00,,,0.00,668.000000,,2013-05-11 01:42:00,
2013-05-10 18:51:00,54.0,40.0,-100.00,West,279,8.0,12.0,60,0.00,,,0.00,159.000000,,2013-05-11 01:51:00,
2013-05-10 19:11:00,54.0,40.0,-100.00,West,279,8.0,12.0,60,0.00,,,0.00,159.000000,,2013-05-11 02:11:00,
2013-05-10 19:21:00,54.0,40.0,-100.00,West,279,8.0,12.0,60,0.00,,,0.00,159.000000,,2013-05-11 02:21:00,
2013-05-10 19:32:00,54.0,40.0,-100.00,West,279,8.0,12.0,60,0.00,,,0.00,159.000000,,2013-05-11 02:32:00,
2013-05-10 19:42:00,54.0,40.0,-100.00,West,279,8.0,12.0,60,0.00,,,0.00,159.000000,,2013-05-11 02:42:00,
2013-05-10 19:51:00,53.0,31.0,-100.00,NNE,24,9.0,15.0,42,0.00,,,0.00,19.000000,,2013-05-11 02:51:00,
2013-05-10 20:21:00,53.0,31.0,-100.00,NNE,24,9.0,15.0,42,0.00,,,0.00,19.000000,,2013-05-11 03:21:00,
2013-05-10 20:32:00,53.0,31.0,-100.00,NNE,24,9.0,15.0,42,0.00,,,0.00,19.000000,,2013-05-11 03:32:00,
2013-05-10 20:42:00,53.0,31.0,-100.00,NNE,24,9.0,15.0,42,0.00,,,0.00,19.000000,,2013-05-11 03:42:00,
2013-05-10 21:12:00,53.0,27.0,-100.00,NNW,342,10.0,17.0,37,0.00,,,0.00,0.000000,,2013-05-11 04:12:00,
2013-05-10 21:23:00,53.0,27.0,-100.00,NNW,342,10.0,17.0,37,0.00,,,0.00,0.000000,,2013-05-11 04:23:00,
2013-05-10 21:33:00,53.0,27.0,-100.00,NNW,342,10.0,17.0,37,0.00,,,0.00,0.000000,,2013-05-11 04:33:00,
2013-05-10 21:43:00,53.0,27.0,-100.00,NNW,342,10.0,17.0,37,0.00,,,0.00,0.000000,,2013-05-11 04:43:00,
2013-05-10 21:51:00,53.0,32.0,-100.00,West,270,11.0,18.0,44,0.00,,,0.00,0.000000,,2013-05-11 04:51:00,
2013-05-10 22:21:00,53.0,32.0,-100.00,West,270,11.0,18.0,44,0.00,,,0.00,0.000000,,2013-05-11 05:21:00,
2013-05-10 22:32:00,53.0,32.0,-100.00,West,270,11.0,18.0,44,0.00,,,0.00,0.000000,,2013-05-11 05:32:00,
2013-05-10 22:42:00,53.0,32.0,-100.00,West,270,11.0,18.0,44,0.00,,,0.00,0.000000,,2013-05-11 05:42:00,
2013-05-10 22:51:00,53.0,36.0,-100.00,ESE,103,10.0,20.0,53,0.00,,,0.00,0.000000,,2013-05-11 05:51:00,
2013-05-10 23:12:00,53.0,36.0,-100.00,ESE,103,10.0,20.0,53,0.00,,,0.00,0.000000,,2013-05-11 06:12:00,
2013-05-10 23:21:00,53.0,36.0,-100.00,ESE,103,10.0,20.0,53,0.00,,,0.00,0.000000,,2013-05-11 06:21:00,
2013-05-10 23:32:00,53.0,36.0,-100.00,ESE,103,10.0,20.0,53,0.00,,,0.00,0.000000,,2013-05-11 06:32:00,
2013-05-10 23:42:00,53.0,36.0,-100.00,ESE,103,10.0,20.0,53,0.00,,,0.00,0.000000,,2013-05-11 06:42:00,
2013-05-10 23:51:00,51.0,38.0,-100.00,North,1,10.0,17.0,61,0.00,,,0.00,0.000000,,2013-05-11 06:51:00,